Climatologie pour Saint-Brevin les Pins
Jour • Résumé pour juillet 22, 2017 Système :  Métrique    Anglais   Mixte
« - 1 jour
+ 1 jour »
Jour Semaine Mois Année Personnalisé
  Maximum : Minimum : Moyenne :
Température sous abri : 21.7 °C 13.7 °C 16.9 °C
Point de rosée : 15.4 °C 12.1 °C 13.6 °C
Humidité : 96 % 63 % 81 %
Vitesse du vent : 30.6 km/h 0.0 km/h 9.2 km/h
Rafale : 40.2 km/h - -
Direction :- - West
Pression : 1015.8 hPa 1009.0 hPa -
Précipitations : 0.5 mm    
Historical Graphs
 
 
Tableau de données pour juillet 22, 2017
Heure Tempé Pt rosée Pression Vent Vitesse Rafale Humidité Taux pluie (/hr) Soleil
00:00 15.4 °C 14.6 °C 1009.0 hPa West 1.6 km/h 12.9 km/h 95 % 2.3 mm 0 W/m2
00:05 15.3 °C 14.5 °C 1009.0 hPa WNW 6.4 km/h 12.9 km/h 95 % 1.5 mm 0 W/m2
00:10 15.3 °C 14.5 °C 1009.4 hPa NW 6.4 km/h 14.5 km/h 95 % 1.0 mm 0 W/m2
00:15 15.2 °C 14.4 °C 1009.4 hPa WNW 3.2 km/h 16.1 km/h 95 % 0.5 mm 0 W/m2
00:20 15.2 °C 14.4 °C 1009.0 hPa WNW 4.8 km/h 16.1 km/h 95 % 0.3 mm 0 W/m2
00:25 15.2 °C 14.4 °C 1009.0 hPa NW 6.4 km/h 11.3 km/h 95 % 0.3 mm 0 W/m2
00:30 15.2 °C 14.4 °C 1009.4 hPa NW 1.6 km/h 9.7 km/h 95 % 0.0 mm 0 W/m2
00:35 15.1 °C 14.3 °C 1009.4 hPa NW 12.9 km/h 12.9 km/h 95 % 0.0 mm 0 W/m2
00:40 15.1 °C 14.3 °C 1009.0 hPa WNW 8.0 km/h 14.5 km/h 95 % 0.0 mm 0 W/m2
00:45 15.0 °C 14.2 °C 1009.4 hPa WNW 6.4 km/h 14.5 km/h 95 % 0.0 mm 0 W/m2
00:50 14.9 °C 14.1 °C 1009.4 hPa Calm   12.9 km/h 95 % 0.0 mm 0 W/m2
01:00 14.7 °C 13.9 °C 1009.4 hPa NW 8.0 km/h 14.5 km/h 95 % 0.0 mm 0 W/m2
01:05 14.7 °C 13.9 °C 1009.4 hPa WNW 9.7 km/h 14.5 km/h 95 % 0.0 mm 0 W/m2
01:10 14.7 °C 13.9 °C 1009.4 hPa WNW 3.2 km/h 12.9 km/h 95 % 0.0 mm 0 W/m2
01:15 14.7 °C 13.9 °C 1009.4 hPa West 9.7 km/h 17.7 km/h 95 % 0.0 mm 0 W/m2
01:20 14.7 °C 13.9 °C 1009.4 hPa WNW 4.8 km/h 19.3 km/h 95 % 0.0 mm 0 W/m2
01:25 14.8 °C 14.0 °C 1009.4 hPa WNW 1.6 km/h 19.3 km/h 95 % 0.0 mm 0 W/m2
01:30 14.8 °C 14.0 °C 1009.4 hPa NW 8.0 km/h 17.7 km/h 95 % 0.0 mm 0 W/m2
01:35 14.7 °C 13.9 °C 1009.4 hPa WNW 1.6 km/h 12.9 km/h 95 % 0.0 mm 0 W/m2
01:40 14.7 °C 13.9 °C 1009.7 hPa WNW 9.7 km/h 12.9 km/h 95 % 0.0 mm 0 W/m2
01:45 14.7 °C 13.9 °C 1009.7 hPa NW 4.8 km/h 16.1 km/h 95 % 0.0 mm 0 W/m2
01:50 14.7 °C 13.9 °C 1009.4 hPa WNW 1.6 km/h 16.1 km/h 95 % 0.0 mm 0 W/m2
01:55 14.6 °C 13.8 °C 1009.7 hPa WNW 3.2 km/h 16.1 km/h 95 % 0.0 mm 0 W/m2
02:00 14.5 °C 13.7 °C 1009.4 hPa WNW 6.4 km/h 12.9 km/h 95 % 0.0 mm 0 W/m2
02:05 14.4 °C 13.7 °C 1009.4 hPa WNW 8.0 km/h 12.9 km/h 95 % 0.0 mm 0 W/m2
02:10 14.4 °C 13.6 °C 1009.4 hPa WNW 6.4 km/h 12.9 km/h 95 % 0.0 mm 0 W/m2
02:15 14.4 °C 13.6 °C 1009.4 hPa WNW 1.6 km/h 9.7 km/h 95 % 0.0 mm 0 W/m2
02:20 14.4 °C 13.6 °C 1009.7 hPa WNW 4.8 km/h 9.7 km/h 95 % 0.0 mm 0 W/m2
02:25 14.5 °C 13.9 °C 1009.7 hPa WNW 1.6 km/h 8.0 km/h 96 % 0.0 mm 0 W/m2
02:30 14.6 °C 13.9 °C 1009.7 hPa NW 3.2 km/h 9.7 km/h 96 % 0.0 mm 0 W/m2
02:35 14.6 °C 14.0 °C 1009.7 hPa WNW 6.4 km/h 9.7 km/h 96 % 0.0 mm 0 W/m2
02:40 14.7 °C 13.9 °C 1009.7 hPa West 1.6 km/h 8.0 km/h 95 % 0.0 mm 0 W/m2
02:45 14.6 °C 14.0 °C 1009.7 hPa WNW 3.2 km/h 8.0 km/h 96 % 0.0 mm 0 W/m2
02:50 14.7 °C 14.0 °C 1009.7 hPa West 1.6 km/h 6.4 km/h 96 % 0.0 mm 0 W/m2
02:55 14.7 °C 14.0 °C 1009.7 hPa Calm   6.4 km/h 96 % 0.0 mm 0 W/m2
03:00 14.8 °C 14.1 °C 1009.7 hPa WNW 1.6 km/h 12.9 km/h 96 % 0.0 mm 0 W/m2
03:05 14.8 °C 14.2 °C 1009.7 hPa West 3.2 km/h 12.9 km/h 96 % 0.0 mm 0 W/m2
03:10 14.8 °C 14.0 °C 1009.7 hPa WNW 3.2 km/h 11.3 km/h 95 % 0.0 mm 0 W/m2
03:15 14.8 °C 14.0 °C 1009.7 hPa West 4.8 km/h 16.1 km/h 95 % 0.0 mm 0 W/m2
03:20 14.9 °C 14.1 °C 1009.7 hPa WNW 11.3 km/h 16.1 km/h 95 % 0.0 mm 0 W/m2
03:25 14.9 °C 13.9 °C 1009.7 hPa West 9.7 km/h 14.5 km/h 94 % 0.0 mm 0 W/m2
03:35 14.6 °C 13.7 °C 1009.7 hPa WNW 1.6 km/h 14.5 km/h 94 % 0.0 mm 0 W/m2
03:40 14.4 °C 13.5 °C 1009.7 hPa WNW 4.8 km/h 9.7 km/h 94 % 0.0 mm 0 W/m2
03:45 14.3 °C 13.3 °C 1009.7 hPa WNW 4.8 km/h 8.0 km/h 94 % 0.0 mm 0 W/m2
03:50 14.2 °C 13.4 °C 1009.7 hPa WNW 8.0 km/h 9.7 km/h 95 % 0.0 mm 0 W/m2
03:55 14.2 °C 13.4 °C 1009.7 hPa WNW 3.2 km/h 9.7 km/h 95 % 0.0 mm 0 W/m2
04:00 14.2 °C 13.4 °C 1009.7 hPa WNW 6.4 km/h 9.7 km/h 95 % 0.0 mm 0 W/m2
04:05 14.1 °C 13.3 °C 1009.7 hPa WNW 1.6 km/h 9.7 km/h 95 % 0.0 mm 0 W/m2
04:10 14.1 °C 13.3 °C 1010.0 hPa West 6.4 km/h 9.7 km/h 95 % 0.0 mm 0 W/m2
04:15 14.0 °C 13.2 °C 1010.0 hPa WNW 3.2 km/h 9.7 km/h 95 % 0.0 mm 0 W/m2
04:20 14.0 °C 13.2 °C 1010.0 hPa WNW 4.8 km/h 11.3 km/h 95 % 0.0 mm 0 W/m2
04:25 13.9 °C 13.1 °C 1010.0 hPa West 6.4 km/h 11.3 km/h 95 % 0.0 mm 0 W/m2
04:30 13.9 °C 13.1 °C 1010.0 hPa West 1.6 km/h 8.0 km/h 95 % 0.0 mm 0 W/m2
04:35 13.9 °C 13.1 °C 1010.0 hPa West 1.6 km/h 8.0 km/h 95 % 0.0 mm 0 W/m2
04:40 13.8 °C 13.0 °C 1010.0 hPa Calm   4.8 km/h 95 % 0.0 mm 0 W/m2
04:45 13.9 °C 13.1 °C 1010.0 hPa Calm   4.8 km/h 95 % 0.0 mm 0 W/m2
04:50 13.8 °C 13.0 °C 1010.0 hPa Calm   4.8 km/h 95 % 0.0 mm 0 W/m2
04:55 13.7 °C 12.9 °C 1010.0 hPa West 4.8 km/h 4.8 km/h 95 % 0.0 mm 0 W/m2
05:00 13.7 °C 13.1 °C 1010.0 hPa West 1.6 km/h 4.8 km/h 96 % 0.0 mm 0 W/m2
05:05 13.7 °C 13.1 °C 1010.0 hPa WNW 4.8 km/h 8.0 km/h 96 % 0.0 mm 0 W/m2
05:10 13.7 °C 13.0 °C 1010.0 hPa Calm   8.0 km/h 96 % 0.0 mm 0 W/m2
05:15 13.8 °C 13.2 °C 1010.0 hPa Calm   9.7 km/h 96 % 0.0 mm 0 W/m2
05:20 13.8 °C 13.0 °C 1010.0 hPa Calm   9.7 km/h 95 % 0.0 mm 0 W/m2
05:25 13.8 °C 13.0 °C 1010.0 hPa West 9.7 km/h 12.9 km/h 95 % 0.0 mm 0 W/m2
05:30 13.9 °C 13.2 °C 1010.0 hPa West 8.0 km/h 12.9 km/h 95 % 0.0 mm 0 W/m2
05:35 14.1 °C 13.1 °C 1010.4 hPa West 3.2 km/h 14.5 km/h 94 % 0.0 mm 0 W/m2
05:40 14.2 °C 13.3 °C 1010.4 hPa WSW 8.0 km/h 14.5 km/h 94 % 0.0 mm 0 W/m2
05:45 14.5 °C 13.4 °C 1010.4 hPa Calm   14.5 km/h 93 % 0.0 mm 0 W/m2
05:50 14.6 °C 13.3 °C 1010.4 hPa WSW 6.4 km/h 14.5 km/h 92 % 0.0 mm 0 W/m2
05:55 14.5 °C 13.2 °C 1010.4 hPa West 1.6 km/h 9.7 km/h 92 % 0.0 mm 0 W/m2
06:00 14.7 °C 13.2 °C 1010.4 hPa West 4.8 km/h 11.3 km/h 91 % 0.0 mm 0 W/m2
06:05 14.8 °C 13.0 °C 1010.4 hPa WSW 6.4 km/h 16.1 km/h 89 % 0.0 mm 0 W/m2
06:10 14.9 °C 12.9 °C 1010.4 hPa West 4.8 km/h 16.1 km/h 88 % 0.0 mm 0 W/m2
06:15 14.8 °C 12.8 °C 1010.4 hPa WSW 1.6 km/h 11.3 km/h 88 % 0.0 mm 0 W/m2
06:20 14.9 °C 12.9 °C 1010.4 hPa West 6.4 km/h 14.5 km/h 88 % 0.0 mm 0 W/m2
06:25 14.9 °C 12.9 °C 1010.4 hPa West 3.2 km/h 14.5 km/h 88 % 0.0 mm 0 W/m2
06:30 15.1 °C 12.9 °C 1010.4 hPa WSW 4.8 km/h 12.9 km/h 87 % 0.0 mm 0 W/m2
06:35 15.1 °C 12.8 °C 1010.4 hPa Calm   12.9 km/h 86 % 0.0 mm 0 W/m2
06:40 14.9 °C 12.7 °C 1010.4 hPa West 4.8 km/h 14.5 km/h 87 % 0.0 mm 0 W/m2
06:45 15.0 °C 12.9 °C 1010.4 hPa SW 6.4 km/h 14.5 km/h 87 % 0.0 mm 0 W/m2
06:50 14.9 °C 13.0 °C 1010.4 hPa WSW 3.2 km/h 11.3 km/h 88 % 0.0 mm 0 W/m2
06:55 15.3 °C 13.1 °C 1010.4 hPa West 6.4 km/h 16.1 km/h 87 % 0.0 mm 0 W/m2
07:00 15.4 °C 13.3 °C 1010.4 hPa West 3.2 km/h 16.1 km/h 87 % 0.0 mm 0 W/m2
07:05 15.5 °C 13.2 °C 1010.4 hPa SW 6.4 km/h 14.5 km/h 86 % 0.0 mm 5 W/m2
07:10 15.6 °C 13.2 °C 1010.4 hPa West 4.8 km/h 14.5 km/h 86 % 0.3 mm 7 W/m2
07:15 15.8 °C 13.5 °C 1010.4 hPa WSW 3.2 km/h 14.5 km/h 86 % 0.3 mm 18 W/m2
07:20 15.9 °C 13.4 °C 1010.4 hPa WSW 11.3 km/h 14.5 km/h 85 % 0.3 mm 18 W/m2
07:25 15.9 °C 13.2 °C 1010.4 hPa West 6.4 km/h 17.7 km/h 84 % 0.3 mm 19 W/m2
07:30 16.0 °C 13.1 °C 1010.4 hPa WSW 1.6 km/h 17.7 km/h 83 % 0.3 mm 23 W/m2
07:35 16.1 °C 13.2 °C 1010.4 hPa West 4.8 km/h 14.5 km/h 83 % 0.3 mm 30 W/m2
07:40 16.0 °C 13.3 °C 1010.7 hPa WNW 1.6 km/h 16.1 km/h 84 % 0.3 mm 40 W/m2
07:45 16.2 °C 13.5 °C 1010.4 hPa SW 1.6 km/h 16.1 km/h 84 % 0.3 mm 39 W/m2
07:50 16.2 °C 13.5 °C 1010.4 hPa WSW 4.8 km/h 14.5 km/h 84 % 0.3 mm 28 W/m2
07:55 16.1 °C 13.6 °C 1010.4 hPa SW 8.0 km/h 14.5 km/h 85 % 0.3 mm 32 W/m2
08:00 16.1 °C 13.4 °C 1010.4 hPa WSW 6.4 km/h 16.1 km/h 84 % 0.3 mm 53 W/m2
08:05 16.3 °C 13.3 °C 1010.4 hPa West 6.4 km/h 17.7 km/h 82 % 0.3 mm 69 W/m2
08:10 16.4 °C 13.2 °C 1010.7 hPa SW 6.4 km/h 17.7 km/h 81 % 0.0 mm 51 W/m2
08:15 16.4 °C 13.2 °C 1010.7 hPa WSW 14.5 km/h 19.3 km/h 81 % 0.0 mm 51 W/m2
08:20 16.6 °C 13.3 °C 1010.7 hPa WNW 6.4 km/h 19.3 km/h 81 % 0.0 mm 60 W/m2
08:25 16.6 °C 13.1 °C 1010.7 hPa WNW 6.4 km/h 17.7 km/h 80 % 0.0 mm 72 W/m2
08:30 16.7 °C 13.3 °C 1010.7 hPa West 4.8 km/h 19.3 km/h 80 % 0.0 mm 69 W/m2
08:35 16.8 °C 13.6 °C 1010.7 hPa WSW 11.3 km/h 19.3 km/h 81 % 0.0 mm 63 W/m2
08:40 16.7 °C 13.4 °C 1010.7 hPa West 11.3 km/h 20.9 km/h 81 % 0.0 mm 116 W/m2
08:45 16.8 °C 13.5 °C 1010.7 hPa SW 4.8 km/h 20.9 km/h 81 % 0.0 mm 118 W/m2
08:50 16.8 °C 13.4 °C 1011.1 hPa NW 4.8 km/h 17.7 km/h 80 % 0.0 mm 114 W/m2
08:55 16.9 °C 13.5 °C 1011.1 hPa WNW 12.9 km/h 16.1 km/h 80 % 0.0 mm 123 W/m2
09:00 17.1 °C 13.6 °C 1011.1 hPa West 9.7 km/h 16.1 km/h 80 % 0.0 mm 130 W/m2
09:05 17.1 °C 13.4 °C 1010.7 hPa WSW 6.4 km/h 16.1 km/h 79 % 0.0 mm 158 W/m2
09:10 17.2 °C 13.5 °C 1011.1 hPa Calm   17.7 km/h 79 % 0.0 mm 158 W/m2
09:15 17.2 °C 13.0 °C 1011.1 hPa West 4.8 km/h 19.3 km/h 76 % 0.0 mm 146 W/m2
09:20 17.2 °C 13.1 °C 1011.1 hPa WSW 1.6 km/h 19.3 km/h 77 % 0.0 mm 148 W/m2
09:25 17.2 °C 13.7 °C 1010.7 hPa WSW 3.2 km/h 16.1 km/h 80 % 0.0 mm 169 W/m2
09:30 17.2 °C 13.1 °C 1011.1 hPa SW 4.8 km/h 16.1 km/h 77 % 0.0 mm 174 W/m2
09:35 17.3 °C 12.9 °C 1011.1 hPa SW 8.0 km/h 14.5 km/h 75 % 0.0 mm 169 W/m2
09:40 17.4 °C 12.1 °C 1011.1 hPa WSW 6.4 km/h 16.1 km/h 71 % 0.0 mm 211 W/m2
09:45 17.5 °C 12.4 °C 1011.1 hPa WSW 4.8 km/h 19.3 km/h 72 % 0.0 mm 204 W/m2
09:50 17.6 °C 12.2 °C 1011.1 hPa WSW 6.4 km/h 19.3 km/h 71 % 0.0 mm 172 W/m2
09:55 17.6 °C 12.2 °C 1011.1 hPa West 3.2 km/h 14.5 km/h 71 % 0.0 mm 149 W/m2
10:00 17.5 °C 12.6 °C 1011.1 hPa WNW 9.7 km/h 16.1 km/h 73 % 0.0 mm 118 W/m2
10:05 17.4 °C 12.6 °C 1011.1 hPa WSW 11.3 km/h 19.3 km/h 73 % 0.0 mm 111 W/m2
10:10 17.4 °C 12.7 °C 1011.1 hPa WSW 11.3 km/h 19.3 km/h 74 % 0.0 mm 132 W/m2
10:15 17.4 °C 12.6 °C 1011.1 hPa West 8.0 km/h 19.3 km/h 73 % 0.0 mm 142 W/m2
10:20 17.6 °C 12.7 °C 1011.1 hPa SW 12.9 km/h 19.3 km/h 73 % 0.0 mm 176 W/m2
10:25 17.7 °C 13.0 °C 1011.4 hPa NNW 8.0 km/h 22.5 km/h 74 % 0.0 mm 142 W/m2
10:30 17.7 °C 13.0 °C 1011.1 hPa SW 8.0 km/h 22.5 km/h 74 % 0.0 mm 149 W/m2
10:35 17.6 °C 13.1 °C 1011.1 hPa West 9.7 km/h 17.7 km/h 75 % 0.0 mm 148 W/m2
10:40 17.7 °C 13.0 °C 1011.1 hPa West 4.8 km/h 16.1 km/h 74 % 0.0 mm 142 W/m2
10:45 17.7 °C 13.4 °C 1011.4 hPa WSW 12.9 km/h 17.7 km/h 76 % 0.0 mm 146 W/m2
10:50 17.7 °C 13.2 °C 1011.4 hPa SW 8.0 km/h 20.9 km/h 75 % 0.0 mm 139 W/m2
10:55 17.7 °C 13.0 °C 1011.1 hPa West 8.0 km/h 22.5 km/h 74 % 0.0 mm 155 W/m2
11:00 17.8 °C 13.3 °C 1011.4 hPa SSE 9.7 km/h 22.5 km/h 75 % 0.0 mm 193 W/m2
11:05 17.8 °C 13.9 °C 1011.4 hPa WSW 9.7 km/h 16.1 km/h 78 % 0.0 mm 227 W/m2
11:10 17.8 °C 13.9 °C 1011.4 hPa West 6.4 km/h 20.9 km/h 78 % 0.0 mm 255 W/m2
11:15 17.9 °C 13.7 °C 1011.4 hPa SW 11.3 km/h 20.9 km/h 76 % 0.0 mm 274 W/m2
11:20 18.1 °C 12.8 °C 1011.7 hPa WSW 9.7 km/h 20.9 km/h 71 % 0.0 mm 290 W/m2
11:25 18.3 °C 13.1 °C 1011.7 hPa SW 6.4 km/h 20.9 km/h 72 % 0.0 mm 297 W/m2
11:30 18.4 °C 13.5 °C 1011.7 hPa West 19.3 km/h 25.7 km/h 73 % 0.0 mm 295 W/m2
11:35 18.3 °C 13.4 °C 1011.7 hPa WSW 8.0 km/h 25.7 km/h 73 % 0.0 mm 295 W/m2
11:40 18.4 °C 13.3 °C 1011.7 hPa West 4.8 km/h 24.1 km/h 72 % 0.0 mm 283 W/m2
11:45 18.3 °C 13.2 °C 1011.7 hPa West 9.7 km/h 24.1 km/h 72 % 0.0 mm 246 W/m2
11:50 18.2 °C 13.1 °C 1011.7 hPa WSW 17.7 km/h 22.5 km/h 72 % 0.0 mm 257 W/m2
11:55 18.3 °C 13.4 °C 1011.7 hPa SW 9.7 km/h 22.5 km/h 73 % 0.0 mm 251 W/m2
12:00 18.3 °C 13.1 °C 1012.1 hPa WSW 6.4 km/h 20.9 km/h 72 % 0.0 mm 276 W/m2
12:05 18.4 °C 13.7 °C 1011.7 hPa West 9.7 km/h 20.9 km/h 74 % 0.0 mm 320 W/m2
12:10 18.6 °C 13.9 °C 1011.7 hPa West 11.3 km/h 20.9 km/h 74 % 0.0 mm 410 W/m2
12:15 19.0 °C 14.3 °C 1011.7 hPa WSW 9.7 km/h 20.9 km/h 74 % 0.0 mm 531 W/m2
12:20 19.3 °C 14.1 °C 1011.7 hPa WNW 9.7 km/h 17.7 km/h 72 % 0.0 mm 512 W/m2
12:25 19.4 °C 14.0 °C 1011.7 hPa WSW 9.7 km/h 22.5 km/h 71 % 0.0 mm 403 W/m2
12:30 19.3 °C 13.7 °C 1011.7 hPa WNW 20.9 km/h 22.5 km/h 70 % 0.0 mm 364 W/m2
12:35 19.1 °C 13.5 °C 1011.7 hPa WSW 6.4 km/h 20.9 km/h 70 % 0.0 mm 355 W/m2
12:40 19.1 °C 13.7 °C 1011.7 hPa WSW 11.3 km/h 27.4 km/h 71 % 0.0 mm 411 W/m2
12:45 19.4 °C 14.5 °C 1011.7 hPa NW 9.7 km/h 27.4 km/h 73 % 0.0 mm 621 W/m2
12:50 20.0 °C 14.8 °C 1011.7 hPa West 9.7 km/h 25.7 km/h 72 % 0.0 mm 552 W/m2
12:55 20.2 °C 14.6 °C 1012.1 hPa WSW 12.9 km/h 25.7 km/h 70 % 0.0 mm 596 W/m2
13:00 20.1 °C 14.2 °C 1012.1 hPa WSW 12.9 km/h 25.7 km/h 69 % 0.0 mm 494 W/m2
13:05 19.8 °C 13.8 °C 1012.1 hPa NW 9.7 km/h 27.4 km/h 68 % 0.0 mm 371 W/m2
13:10 19.4 °C 13.8 °C 1012.1 hPa WSW 12.9 km/h 29.0 km/h 70 % 0.0 mm 434 W/m2
13:15 19.3 °C 14.1 °C 1012.1 hPa NW 11.3 km/h 29.0 km/h 72 % 0.0 mm 229 W/m2
13:20 18.3 °C 13.8 °C 1012.1 hPa SW 6.4 km/h 30.6 km/h 75 % 0.0 mm 179 W/m2
13:25 17.4 °C 13.5 °C 1012.4 hPa WNW 11.3 km/h 30.6 km/h 78 % 0.0 mm 139 W/m2
13:30 16.7 °C 14.3 °C 1012.1 hPa WSW 3.2 km/h 24.1 km/h 86 % 0.3 mm 478 W/m2
13:35 17.3 °C 15.3 °C 1012.1 hPa WNW 1.6 km/h 24.1 km/h 88 % 0.3 mm 466 W/m2
13:40 17.8 °C 15.2 °C 1012.1 hPa West 6.4 km/h 20.9 km/h 85 % 0.3 mm 671 W/m2
13:45 18.0 °C 14.5 °C 1012.1 hPa West 19.3 km/h 20.9 km/h 80 % 0.3 mm 490 W/m2
13:50 18.3 °C 14.8 °C 1012.1 hPa NNW 11.3 km/h 19.3 km/h 80 % 0.3 mm 406 W/m2
13:55 18.3 °C 14.2 °C 1012.1 hPa WSW 16.1 km/h 20.9 km/h 77 % 0.3 mm 341 W/m2
14:00 18.3 °C 14.0 °C 1012.1 hPa WSW 9.7 km/h 20.9 km/h 76 % 0.3 mm 352 W/m2
14:05 18.3 °C 14.0 °C 1012.1 hPa NW 14.5 km/h 24.1 km/h 76 % 0.3 mm 392 W/m2
14:10 18.7 °C 14.6 °C 1012.1 hPa West 17.7 km/h 24.1 km/h 77 % 0.5 mm 464 W/m2
14:15 18.8 °C 14.1 °C 1012.4 hPa NW 9.7 km/h 24.1 km/h 74 % 0.5 mm 439 W/m2
14:20 19.4 °C 14.7 °C 1012.4 hPa West 9.7 km/h 24.1 km/h 74 % 0.5 mm 476 W/m2
14:25 19.5 °C 14.5 °C 1012.4 hPa WSW 17.7 km/h 20.9 km/h 73 % 0.5 mm 366 W/m2
14:30 20.2 °C 15.0 °C 1012.4 hPa SW 11.3 km/h 25.7 km/h 72 % 0.3 mm 984 W/m2
14:35 20.6 °C 14.9 °C 1012.4 hPa WSW 20.9 km/h 25.7 km/h 70 % 0.3 mm 970 W/m2
14:40 20.7 °C 14.6 °C 1012.4 hPa WSW 19.3 km/h 29.0 km/h 68 % 0.3 mm 1034 W/m2
14:45 20.9 °C 15.4 °C 1012.4 hPa WNW 14.5 km/h 37.0 km/h 71 % 0.3 mm 642 W/m2
14:50 20.5 °C 15.1 °C 1012.4 hPa WNW 8.0 km/h 37.0 km/h 71 % 0.3 mm 471 W/m2
14:55 20.2 °C 14.7 °C 1012.1 hPa WSW 12.9 km/h 24.1 km/h 71 % 0.3 mm 308 W/m2
15:00 19.7 °C 14.3 °C 1012.4 hPa West 30.6 km/h 30.6 km/h 71 % 0.3 mm 406 W/m2
15:05 19.6 °C 14.2 °C 1012.4 hPa West 6.4 km/h 30.6 km/h 71 % 0.0 mm 230 W/m2
15:10 19.2 °C 14.3 °C 1012.4 hPa WNW 11.3 km/h 30.6 km/h 73 % 0.0 mm 223 W/m2
15:15 19.4 °C 14.7 °C 1012.4 hPa WNW 19.3 km/h 25.7 km/h 74 % 0.0 mm 512 W/m2
15:20 20.1 °C 14.0 °C 1012.4 hPa West 11.3 km/h 33.8 km/h 68 % 0.0 mm 612 W/m2
15:25 20.4 °C 14.3 °C 1012.4 hPa WNW 6.4 km/h 33.8 km/h 68 % 0.0 mm 596 W/m2
15:30 20.4 °C 14.5 °C 1012.4 hPa West 27.4 km/h 33.8 km/h 69 % 0.0 mm 452 W/m2
15:35 19.8 °C 14.2 °C 1012.4 hPa West 17.7 km/h 29.0 km/h 70 % 0.0 mm 432 W/m2
15:40 19.7 °C 14.3 °C 1012.4 hPa West 19.3 km/h 27.4 km/h 71 % 0.0 mm 309 W/m2
15:45 20.1 °C 14.7 °C 1012.4 hPa West 17.7 km/h 25.7 km/h 71 % 0.0 mm 810 W/m2
15:50 21.3 °C 15.4 °C 1012.4 hPa WNW 11.3 km/h 22.5 km/h 69 % 0.0 mm 986 W/m2
15:55 21.6 °C 14.2 °C 1012.4 hPa West 19.3 km/h 29.0 km/h 63 % 0.0 mm 963 W/m2
16:00 21.7 °C 14.3 °C 1012.4 hPa WNW 16.1 km/h 32.2 km/h 63 % 0.0 mm 621 W/m2
16:05 21.7 °C 14.6 °C 1012.4 hPa West 20.9 km/h 32.2 km/h 64 % 0.0 mm 712 W/m2
16:10 20.4 °C 13.8 °C 1012.4 hPa WSW 11.3 km/h 30.6 km/h 66 % 0.0 mm 350 W/m2
16:15 19.9 °C 14.0 °C 1012.4 hPa WNW 17.7 km/h 29.0 km/h 69 % 0.0 mm 359 W/m2
16:20 19.8 °C 13.9 °C 1012.8 hPa SW 11.3 km/h 29.0 km/h 69 % 0.0 mm 183 W/m2
16:25 19.4 °C 13.8 °C 1012.4 hPa West 27.4 km/h 27.4 km/h 70 % 0.0 mm 281 W/m2
16:30 19.5 °C 13.9 °C 1012.8 hPa West 14.5 km/h 30.6 km/h 70 % 0.0 mm 413 W/m2
16:35 19.9 °C 14.3 °C 1012.8 hPa WNW 8.0 km/h 30.6 km/h 70 % 0.0 mm 462 W/m2
16:40 20.2 °C 14.3 °C 1012.8 hPa West 11.3 km/h 27.4 km/h 69 % 0.0 mm 420 W/m2
16:45 19.9 °C 13.6 °C 1012.8 hPa SW 9.7 km/h 27.4 km/h 67 % 0.0 mm 410 W/m2
16:50 19.9 °C 13.9 °C 1012.4 hPa West 9.7 km/h 37.0 km/h 68 % 0.0 mm 396 W/m2
16:55 20.5 °C 14.2 °C 1012.8 hPa WSW 12.9 km/h 37.0 km/h 67 % 0.0 mm 559 W/m2
17:00 21.0 °C 13.9 °C 1012.8 hPa West 20.9 km/h 32.2 km/h 64 % 0.0 mm 744 W/m2
17:05 20.7 °C 13.9 °C 1012.8 hPa WNW 11.3 km/h 37.0 km/h 65 % 0.0 mm 378 W/m2
17:10 20.0 °C 13.7 °C 1012.8 hPa West 20.9 km/h 37.0 km/h 67 % 0.0 mm 374 W/m2
17:15 19.7 °C 13.6 °C 1012.8 hPa West 12.9 km/h 33.8 km/h 68 % 0.0 mm 251 W/m2
17:20 19.6 °C 13.9 °C 1012.8 hPa WNW 19.3 km/h 33.8 km/h 70 % 0.0 mm 146 W/m2
17:25 19.0 °C 13.8 °C 1013.1 hPa West 19.3 km/h 37.0 km/h 72 % 0.0 mm 33 W/m2
17:30 17.4 °C 13.6 °C 1013.1 hPa WNW 29.0 km/h 38.6 km/h 78 % 0.0 mm 54 W/m2
17:35 16.4 °C 13.9 °C 1013.1 hPa WNW 14.5 km/h 38.6 km/h 85 % 0.0 mm 84 W/m2
17:40 16.2 °C 14.1 °C 1013.1 hPa WNW 12.9 km/h 29.0 km/h 87 % 0.0 mm 70 W/m2
17:45 16.2 °C 13.9 °C 1013.4 hPa NW 12.9 km/h 35.4 km/h 86 % 0.0 mm 74 W/m2
17:50 16.3 °C 13.6 °C 1013.4 hPa West 29.0 km/h 40.2 km/h 84 % 0.0 mm 123 W/m2
18:00 15.4 °C 13.4 °C 1013.8 hPa NW 12.9 km/h 40.2 km/h 88 % 0.0 mm 128 W/m2
18:05 15.2 °C 13.6 °C 1013.4 hPa NW 16.1 km/h 33.8 km/h 90 % 0.0 mm 185 W/m2
18:10 15.4 °C 13.8 °C 1013.4 hPa West 8.0 km/h 25.7 km/h 90 % 0.0 mm 239 W/m2
18:15 15.9 °C 14.1 °C 1013.4 hPa WSW 6.4 km/h 19.3 km/h 89 % 0.0 mm 272 W/m2
18:20 16.6 °C 14.6 °C 1013.4 hPa WNW 9.7 km/h 14.5 km/h 88 % 0.0 mm 246 W/m2
18:25 17.1 °C 14.7 °C 1013.4 hPa WNW 8.0 km/h 19.3 km/h 86 % 0.0 mm 663 W/m2
18:30 17.8 °C 14.9 °C 1013.4 hPa WNW 9.7 km/h 24.1 km/h 83 % 0.0 mm 554 W/m2
18:35 18.2 °C 15.1 °C 1013.4 hPa NW 14.5 km/h 24.1 km/h 82 % 0.0 mm 524 W/m2
18:40 17.9 °C 13.9 °C 1013.1 hPa West 8.0 km/h 27.4 km/h 77 % 0.0 mm 496 W/m2
18:45 18.4 °C 14.1 °C 1013.4 hPa West 4.8 km/h 27.4 km/h 76 % 0.0 mm 462 W/m2
18:50 18.3 °C 13.6 °C 1013.4 hPa West 14.5 km/h 27.4 km/h 74 % 0.0 mm 167 W/m2
18:55 17.7 °C 13.2 °C 1013.1 hPa WNW 16.1 km/h 27.4 km/h 75 % 0.0 mm 137 W/m2
19:00 17.5 °C 13.4 °C 1013.1 hPa WNW 9.7 km/h 25.7 km/h 77 % 0.0 mm 95 W/m2
19:05 17.4 °C 13.2 °C 1013.1 hPa West 17.7 km/h 20.9 km/h 76 % 0.0 mm 90 W/m2
19:10 17.5 °C 13.0 °C 1013.1 hPa WSW 14.5 km/h 25.7 km/h 75 % 0.0 mm 58 W/m2
19:15 17.5 °C 12.8 °C 1013.4 hPa WNW 16.1 km/h 25.7 km/h 74 % 0.0 mm 33 W/m2
19:20 17.1 °C 12.8 °C 1013.4 hPa West 11.3 km/h 27.4 km/h 76 % 0.0 mm 30 W/m2
19:25 16.7 °C 13.1 °C 1013.4 hPa West 17.7 km/h 27.4 km/h 79 % 0.0 mm 37 W/m2
19:30 16.7 °C 12.5 °C 1013.8 hPa West 14.5 km/h 25.7 km/h 76 % 0.0 mm 47 W/m2
19:35 16.8 °C 12.3 °C 1013.8 hPa WSW 12.9 km/h 25.7 km/h 75 % 0.0 mm 62 W/m2
19:40 16.5 °C 13.0 °C 1013.8 hPa West 6.4 km/h 32.2 km/h 80 % 0.0 mm 53 W/m2
19:45 16.4 °C 13.5 °C 1013.4 hPa WNW 11.3 km/h 32.2 km/h 83 % 0.0 mm 81 W/m2
19:50 16.6 °C 13.5 °C 1013.4 hPa WNW 4.8 km/h 20.9 km/h 82 % 0.0 mm 77 W/m2
19:55 16.8 °C 13.4 °C 1013.4 hPa SW 12.9 km/h 24.1 km/h 80 % 0.0 mm 84 W/m2
20:00 17.2 °C 13.5 °C 1013.4 hPa WNW 12.9 km/h 25.7 km/h 79 % 0.0 mm 111 W/m2
20:05 17.3 °C 13.5 °C 1013.8 hPa WSW 9.7 km/h 25.7 km/h 78 % 0.0 mm 88 W/m2
20:10 17.4 °C 13.5 °C 1013.8 hPa WNW 8.0 km/h 25.7 km/h 78 % 0.0 mm 109 W/m2
20:15 17.4 °C 13.6 °C 1013.8 hPa WSW 9.7 km/h 20.9 km/h 78 % 0.0 mm 86 W/m2
20:20 17.5 °C 13.2 °C 1013.8 hPa WSW 8.0 km/h 24.1 km/h 76 % 0.0 mm 91 W/m2
20:25 17.6 °C 13.5 °C 1013.8 hPa WSW 8.0 km/h 25.7 km/h 77 % 0.0 mm 105 W/m2
20:30 17.8 °C 13.7 °C 1013.8 hPa West 14.5 km/h 25.7 km/h 77 % 0.0 mm 160 W/m2
20:35 17.9 °C 13.7 °C 1013.8 hPa West 4.8 km/h 25.7 km/h 76 % 0.0 mm 111 W/m2
20:40 17.9 °C 13.7 °C 1014.1 hPa WNW 8.0 km/h 20.9 km/h 76 % 0.0 mm 67 W/m2
20:45 17.8 °C 13.7 °C 1014.1 hPa West 9.7 km/h 20.9 km/h 77 % 0.0 mm 58 W/m2
20:50 17.5 °C 14.0 °C 1014.1 hPa WNW 6.4 km/h 20.9 km/h 80 % 0.0 mm 77 W/m2
20:55 17.4 °C 14.1 °C 1014.1 hPa WNW 6.4 km/h 22.5 km/h 81 % 0.0 mm 116 W/m2
21:00 17.7 °C 14.6 °C 1014.1 hPa NW 4.8 km/h 22.5 km/h 82 % 0.0 mm 116 W/m2
21:05 17.8 °C 14.1 °C 1014.1 hPa North 4.8 km/h 24.1 km/h 79 % 0.0 mm 65 W/m2
21:10 17.6 °C 13.7 °C 1014.1 hPa WNW 8.0 km/h 24.1 km/h 78 % 0.0 mm 42 W/m2
21:15 17.5 °C 13.4 °C 1014.1 hPa West 30.6 km/h 32.2 km/h 77 % 0.0 mm 37 W/m2
21:20 17.4 °C 13.1 °C 1014.1 hPa NW 14.5 km/h 32.2 km/h 76 % 0.0 mm 35 W/m2
21:25 17.3 °C 13.1 °C 1014.1 hPa NW 17.7 km/h 32.2 km/h 76 % 0.0 mm 23 W/m2
21:30 17.2 °C 13.2 °C 1014.4 hPa West 8.0 km/h 29.0 km/h 77 % 0.0 mm 12 W/m2
21:35 17.2 °C 13.3 °C 1014.4 hPa WSW 9.7 km/h 27.4 km/h 78 % 0.0 mm 9 W/m2
21:40 17.1 °C 13.2 °C 1014.4 hPa West 14.5 km/h 27.4 km/h 78 % 0.0 mm 7 W/m2
21:45 17.1 °C 13.2 °C 1014.4 hPa West 8.0 km/h 24.1 km/h 78 % 0.0 mm 7 W/m2
21:50 17.1 °C 13.0 °C 1014.4 hPa WNW 12.9 km/h 29.0 km/h 77 % 0.0 mm 5 W/m2
21:55 17.1 °C 13.0 °C 1014.4 hPa West 20.9 km/h 29.0 km/h 77 % 0.0 mm 0 W/m2
22:00 17.1 °C 13.0 °C 1014.8 hPa WSW 9.7 km/h 27.4 km/h 77 % 0.0 mm 0 W/m2
22:05 16.9 °C 12.9 °C 1014.8 hPa West 9.7 km/h 30.6 km/h 77 % 0.0 mm 0 W/m2
22:10 16.8 °C 13.0 °C 1014.8 hPa WNW 8.0 km/h 30.6 km/h 78 % 0.0 mm 0 W/m2
22:15 16.8 °C 12.9 °C 1014.8 hPa WNW 9.7 km/h 27.4 km/h 78 % 0.0 mm 0 W/m2
22:20 16.8 °C 12.9 °C 1015.1 hPa WSW 12.9 km/h 25.7 km/h 78 % 0.0 mm 0 W/m2
22:25 16.6 °C 13.0 °C 1015.1 hPa West 6.4 km/h 20.9 km/h 79 % 0.0 mm 0 W/m2
22:30 16.7 °C 13.0 °C 1015.1 hPa NW 14.5 km/h 29.0 km/h 79 % 0.0 mm 0 W/m2
22:35 16.8 °C 13.1 °C 1015.1 hPa West 6.4 km/h 30.6 km/h 79 % 0.0 mm 0 W/m2
22:40 16.7 °C 12.9 °C 1015.1 hPa WSW 11.3 km/h 30.6 km/h 78 % 0.0 mm 0 W/m2
22:45 16.8 °C 12.9 °C 1015.1 hPa WNW 12.9 km/h 22.5 km/h 78 % 0.0 mm 0 W/m2
22:50 16.7 °C 12.4 °C 1015.5 hPa NW 14.5 km/h 25.7 km/h 76 % 0.0 mm 0 W/m2
22:55 16.7 °C 12.7 °C 1015.5 hPa WNW 16.1 km/h 25.7 km/h 77 % 0.0 mm 0 W/m2
23:00 16.7 °C 12.7 °C 1015.5 hPa WNW 12.9 km/h 25.7 km/h 77 % 0.0 mm 0 W/m2
23:05 16.8 °C 12.7 °C 1015.5 hPa West 12.9 km/h 24.1 km/h 77 % 0.0 mm 0 W/m2
23:10 16.8 °C 12.7 °C 1015.5 hPa WNW 16.1 km/h 24.1 km/h 77 % 0.0 mm 0 W/m2
23:15 16.8 °C 13.0 °C 1015.5 hPa NW 12.9 km/h 24.1 km/h 78 % 0.0 mm 0 W/m2
23:20 16.8 °C 12.8 °C 1015.5 hPa West 11.3 km/h 20.9 km/h 77 % 0.0 mm 0 W/m2
23:25 16.8 °C 12.7 °C 1015.5 hPa WSW 16.1 km/h 22.5 km/h 77 % 0.0 mm 0 W/m2
23:30 16.7 °C 12.9 °C 1015.5 hPa WNW 14.5 km/h 22.5 km/h 78 % 0.0 mm 0 W/m2
23:35 16.6 °C 12.8 °C 1015.5 hPa WNW 12.9 km/h 22.5 km/h 78 % 0.0 mm 0 W/m2
23:40 16.5 °C 12.6 °C 1015.8 hPa WSW 8.0 km/h 22.5 km/h 78 % 0.0 mm 0 W/m2
23:45 16.6 °C 12.5 °C 1015.8 hPa West 8.0 km/h 25.7 km/h 77 % 0.0 mm 0 W/m2
23:50 16.6 °C 12.1 °C 1015.8 hPa West 17.7 km/h 29.0 km/h 75 % 0.0 mm 0 W/m2
23:55 16.5 °C 12.3 °C 1015.8 hPa NW 11.3 km/h 29.0 km/h 76 % 0.0 mm 0 W/m2
Avec l'autorisation de Weather Underground - 1.75 mb